sensor_id;sensor_type;location;lat;lon;timestamp;P1;durP1;ratioP1;P2;durP2;ratioP2
46643;SDS011;32371;51.032;5.816;2023-08-20T00:00:51;6.78;;;4.57;;
46643;SDS011;32371;51.032;5.816;2023-08-20T00:03:17;9.50;;;4.43;;
46643;SDS011;32371;51.032;5.816;2023-08-20T00:05:43;4.93;;;3.55;;
46643;SDS011;32371;51.032;5.816;2023-08-20T00:08:09;7.80;;;4.75;;
46643;SDS011;32371;51.032;5.816;2023-08-20T00:10:34;10.32;;;5.50;;
46643;SDS011;32371;51.032;5.816;2023-08-20T00:12:59;7.95;;;4.82;;
46643;SDS011;32371;51.032;5.816;2023-08-20T00:15:25;7.80;;;4.95;;
46643;SDS011;32371;51.032;5.816;2023-08-20T00:17:53;6.68;;;4.70;;
46643;SDS011;32371;51.032;5.816;2023-08-20T00:20:20;9.52;;;4.40;;
46643;SDS011;32371;51.032;5.816;2023-08-20T00:22:46;21.13;;;4.70;;
46643;SDS011;32371;51.032;5.816;2023-08-20T00:25:12;9.15;;;4.43;;
46643;SDS011;32371;51.032;5.816;2023-08-20T00:27:39;9.18;;;5.03;;
46643;SDS011;32371;51.032;5.816;2023-08-20T00:30:05;4.78;;;4.28;;
46643;SDS011;32371;51.032;5.816;2023-08-20T00:32:31;10.82;;;4.90;;
46643;SDS011;32371;51.032;5.816;2023-08-20T00:34:56;6.82;;;4.72;;
46643;SDS011;32371;51.032;5.816;2023-08-20T00:37:21;7.53;;;4.55;;
46643;SDS011;32371;51.032;5.816;2023-08-20T00:39:47;11.18;;;6.78;;
46643;SDS011;32371;51.032;5.816;2023-08-20T00:42:12;12.23;;;5.75;;
46643;SDS011;32371;51.032;5.816;2023-08-20T00:44:40;8.27;;;6.70;;
46643;SDS011;32371;51.032;5.816;2023-08-20T00:47:09;13.65;;;6.30;;
46643;SDS011;32371;51.032;5.816;2023-08-20T00:49:34;10.75;;;6.55;;
46643;SDS011;32371;51.032;5.816;2023-08-20T00:52:00;10.57;;;6.93;;
46643;SDS011;32371;51.032;5.816;2023-08-20T00:54:26;10.93;;;7.07;;
46643;SDS011;32371;51.032;5.816;2023-08-20T00:56:52;11.68;;;5.97;;
46643;SDS011;32371;51.032;5.816;2023-08-20T00:59:18;11.02;;;5.88;;
46643;SDS011;32371;51.032;5.816;2023-08-20T01:01:43;9.60;;;6.60;;
46643;SDS011;32371;51.032;5.816;2023-08-20T01:04:09;13.82;;;6.43;;
46643;SDS011;32371;51.032;5.816;2023-08-20T01:09:50;19.33;;;7.10;;
46643;SDS011;32371;51.032;5.816;2023-08-20T01:12:18;11.32;;;6.75;;
46643;SDS011;32371;51.032;5.816;2023-08-20T01:14:44;13.15;;;7.30;;
46643;SDS011;32371;51.032;5.816;2023-08-20T01:17:09;14.43;;;7.43;;
46643;SDS011;32371;51.032;5.816;2023-08-20T01:19:35;11.65;;;7.20;;
46643;SDS011;32371;51.032;5.816;2023-08-20T01:30:28;12.25;;;7.90;;
46643;SDS011;32371;51.032;5.816;2023-08-20T01:32:55;10.82;;;6.72;;
46643;SDS011;32371;51.032;5.816;2023-08-20T01:35:22;14.38;;;7.82;;
46643;SDS011;32371;51.032;5.816;2023-08-20T01:37:49;12.93;;;6.95;;
46643;SDS011;32371;51.032;5.816;2023-08-20T01:40:14;13.30;;;7.50;;
46643;SDS011;32371;51.032;5.816;2023-08-20T01:42:40;13.02;;;7.65;;
46643;SDS011;32371;51.032;5.816;2023-08-20T01:45:06;20.10;;;8.52;;
46643;SDS011;32371;51.032;5.816;2023-08-20T01:47:33;15.88;;;8.40;;
46643;SDS011;32371;51.032;5.816;2023-08-20T01:49:58;13.80;;;6.90;;
46643;SDS011;32371;51.032;5.816;2023-08-20T01:52:24;15.70;;;7.25;;
46643;SDS011;32371;51.032;5.816;2023-08-20T01:54:50;18.02;;;7.70;;
46643;SDS011;32371;51.032;5.816;2023-08-20T01:57:15;16.30;;;8.40;;
46643;SDS011;32371;51.032;5.816;2023-08-20T01:59:41;11.80;;;7.03;;
46643;SDS011;32371;51.032;5.816;2023-08-20T02:02:06;17.10;;;8.15;;
46643;SDS011;32371;51.032;5.816;2023-08-20T02:04:32;13.68;;;8.20;;
46643;SDS011;32371;51.032;5.816;2023-08-20T02:06:58;16.52;;;8.70;;
46643;SDS011;32371;51.032;5.816;2023-08-20T02:09:23;15.77;;;8.60;;
46643;SDS011;32371;51.032;5.816;2023-08-20T02:11:49;21.67;;;8.27;;
46643;SDS011;32371;51.032;5.816;2023-08-20T02:14:15;14.63;;;8.05;;
46643;SDS011;32371;51.032;5.816;2023-08-20T02:16:41;12.63;;;7.60;;
46643;SDS011;32371;51.032;5.816;2023-08-20T02:19:06;11.68;;;7.07;;
46643;SDS011;32371;51.032;5.816;2023-08-20T02:21:32;18.48;;;8.73;;
46643;SDS011;32371;51.032;5.816;2023-08-20T02:23:57;15.98;;;7.93;;
46643;SDS011;32371;51.032;5.816;2023-08-20T02:26:23;15.07;;;7.38;;
46643;SDS011;32371;51.032;5.816;2023-08-20T02:28:48;15.43;;;7.50;;
46643;SDS011;32371;51.032;5.816;2023-08-20T02:31:14;12.95;;;8.35;;
46643;SDS011;32371;51.032;5.816;2023-08-20T02:33:39;20.85;;;8.80;;
46643;SDS011;32371;51.032;5.816;2023-08-20T02:36:05;12.68;;;7.97;;
46643;SDS011;32371;51.032;5.816;2023-08-20T02:38:30;13.68;;;8.27;;
46643;SDS011;32371;51.032;5.816;2023-08-20T02:40:56;15.10;;;7.65;;
46643;SDS011;32371;51.032;5.816;2023-08-20T02:43:21;13.50;;;6.75;;
46643;SDS011;32371;51.032;5.816;2023-08-20T02:45:46;14.82;;;8.48;;
46643;SDS011;32371;51.032;5.816;2023-08-20T02:48:13;13.98;;;7.63;;
46643;SDS011;32371;51.032;5.816;2023-08-20T02:50:39;18.15;;;7.65;;
46643;SDS011;32371;51.032;5.816;2023-08-20T02:53:04;13.30;;;8.55;;
46643;SDS011;32371;51.032;5.816;2023-08-20T02:55:30;11.38;;;6.90;;
46643;SDS011;32371;51.032;5.816;2023-08-20T02:57:56;20.98;;;8.82;;
46643;SDS011;32371;51.032;5.816;2023-08-20T03:00:21;15.65;;;8.07;;
46643;SDS011;32371;51.032;5.816;2023-08-20T03:02:47;13.73;;;7.78;;
46643;SDS011;32371;51.032;5.816;2023-08-20T03:05:12;14.85;;;8.55;;
46643;SDS011;32371;51.032;5.816;2023-08-20T03:07:38;19.65;;;8.45;;
46643;SDS011;32371;51.032;5.816;2023-08-20T03:10:03;18.17;;;7.80;;
46643;SDS011;32371;51.032;5.816;2023-08-20T03:12:29;14.98;;;8.57;;
46643;SDS011;32371;51.032;5.816;2023-08-20T03:14:55;16.13;;;8.60;;
46643;SDS011;32371;51.032;5.816;2023-08-20T03:17:21;16.88;;;7.85;;
46643;SDS011;32371;51.032;5.816;2023-08-20T03:19:57;13.68;;;8.02;;
46643;SDS011;32371;51.032;5.816;2023-08-20T03:22:25;18.30;;;9.23;;
46643;SDS011;32371;51.032;5.816;2023-08-20T03:24:52;15.88;;;8.15;;
46643;SDS011;32371;51.032;5.816;2023-08-20T03:27:18;15.52;;;8.27;;
46643;SDS011;32371;51.032;5.816;2023-08-20T03:29:43;16.80;;;8.23;;
46643;SDS011;32371;51.032;5.816;2023-08-20T03:32:09;17.98;;;8.88;;
46643;SDS011;32371;51.032;5.816;2023-08-20T03:34:35;10.95;;;7.18;;
46643;SDS011;32371;51.032;5.816;2023-08-20T03:37:00;12.10;;;8.77;;
46643;SDS011;32371;51.032;5.816;2023-08-20T03:39:26;15.02;;;7.20;;
46643;SDS011;32371;51.032;5.816;2023-08-20T03:41:52;16.15;;;7.68;;
46643;SDS011;32371;51.032;5.816;2023-08-20T03:44:17;20.23;;;7.43;;
46643;SDS011;32371;51.032;5.816;2023-08-20T03:46:44;11.88;;;7.40;;
46643;SDS011;32371;51.032;5.816;2023-08-20T03:49:09;13.63;;;7.93;;
46643;SDS011;32371;51.032;5.816;2023-08-20T03:51:35;14.43;;;7.18;;
46643;SDS011;32371;51.032;5.816;2023-08-20T03:54:01;14.90;;;7.78;;
46643;SDS011;32371;51.032;5.816;2023-08-20T03:56:26;14.20;;;7.18;;
46643;SDS011;32371;51.032;5.816;2023-08-20T03:58:52;7.82;;;5.95;;
46643;SDS011;32371;51.032;5.816;2023-08-20T04:01:18;13.30;;;7.00;;
46643;SDS011;32371;51.032;5.816;2023-08-20T04:03:43;10.40;;;6.10;;
46643;SDS011;32371;51.032;5.816;2023-08-20T04:06:08;9.38;;;6.15;;
46643;SDS011;32371;51.032;5.816;2023-08-20T04:08:34;8.48;;;6.85;;
46643;SDS011;32371;51.032;5.816;2023-08-20T04:10:59;13.25;;;7.47;;
46643;SDS011;32371;51.032;5.816;2023-08-20T04:13:26;12.80;;;7.75;;
46643;SDS011;32371;51.032;5.816;2023-08-20T04:15:51;15.50;;;7.60;;
46643;SDS011;32371;51.032;5.816;2023-08-20T04:18:16;14.07;;;8.25;;
46643;SDS011;32371;51.032;5.816;2023-08-20T04:20:42;11.38;;;7.10;;
46643;SDS011;32371;51.032;5.816;2023-08-20T04:23:07;17.45;;;7.90;;
46643;SDS011;32371;51.032;5.816;2023-08-20T04:25:33;15.70;;;7.07;;
46643;SDS011;32371;51.032;5.816;2023-08-20T04:27:59;11.57;;;5.93;;
46643;SDS011;32371;51.032;5.816;2023-08-20T04:30:24;9.82;;;5.75;;
46643;SDS011;32371;51.032;5.816;2023-08-20T04:32:49;10.48;;;4.97;;
46643;SDS011;32371;51.032;5.816;2023-08-20T04:35:15;5.53;;;4.47;;
46643;SDS011;32371;51.032;5.816;2023-08-20T04:37:41;7.20;;;4.25;;
46643;SDS011;32371;51.032;5.816;2023-08-20T04:40:07;6.22;;;4.80;;
46643;SDS011;32371;51.032;5.816;2023-08-20T04:42:33;6.13;;;4.68;;
46643;SDS011;32371;51.032;5.816;2023-08-20T04:44:58;8.25;;;4.90;;
46643;SDS011;32371;51.032;5.816;2023-08-20T04:47:24;10.88;;;5.95;;
46643;SDS011;32371;51.032;5.816;2023-08-20T04:49:49;12.88;;;6.80;;
46643;SDS011;32371;51.032;5.816;2023-08-20T04:52:16;9.23;;;5.75;;
46643;SDS011;32371;51.032;5.816;2023-08-20T04:54:41;13.38;;;6.07;;
46643;SDS011;32371;51.032;5.816;2023-08-20T04:57:07;11.50;;;6.80;;
46643;SDS011;32371;51.032;5.816;2023-08-20T04:59:32;11.38;;;5.97;;
46643;SDS011;32371;51.032;5.816;2023-08-20T05:01:57;9.60;;;6.15;;
46643;SDS011;32371;51.032;5.816;2023-08-20T05:04:23;9.80;;;6.30;;
46643;SDS011;32371;51.032;5.816;2023-08-20T05:06:48;13.45;;;6.78;;
46643;SDS011;32371;51.032;5.816;2023-08-20T05:09:14;8.25;;;5.97;;
46643;SDS011;32371;51.032;5.816;2023-08-20T05:11:41;8.57;;;6.22;;
46643;SDS011;32371;51.032;5.816;2023-08-20T05:14:06;11.95;;;7.43;;
46643;SDS011;32371;51.032;5.816;2023-08-20T05:16:32;12.35;;;6.55;;
46643;SDS011;32371;51.032;5.816;2023-08-20T05:18:57;11.75;;;7.10;;
46643;SDS011;32371;51.032;5.816;2023-08-20T05:21:23;13.88;;;7.72;;
46643;SDS011;32371;51.032;5.816;2023-08-20T05:23:48;13.70;;;7.57;;
46643;SDS011;32371;51.032;5.816;2023-08-20T05:26:13;12.77;;;7.60;;
46643;SDS011;32371;51.032;5.816;2023-08-20T05:28:39;13.40;;;7.18;;
46643;SDS011;32371;51.032;5.816;2023-08-20T05:31:04;13.68;;;7.13;;
46643;SDS011;32371;51.032;5.816;2023-08-20T05:33:30;11.00;;;7.38;;
46643;SDS011;32371;51.032;5.816;2023-08-20T05:35:55;10.45;;;7.13;;
46643;SDS011;32371;51.032;5.816;2023-08-20T05:38:20;12.35;;;7.35;;
46643;SDS011;32371;51.032;5.816;2023-08-20T05:40:46;14.65;;;7.80;;
46643;SDS011;32371;51.032;5.816;2023-08-20T05:43:11;13.63;;;7.00;;
46643;SDS011;32371;51.032;5.816;2023-08-20T05:45:36;12.15;;;7.07;;
46643;SDS011;32371;51.032;5.816;2023-08-20T05:48:02;16.73;;;7.38;;
46643;SDS011;32371;51.032;5.816;2023-08-20T05:50:27;12.18;;;7.68;;
46643;SDS011;32371;51.032;5.816;2023-08-20T05:52:52;14.60;;;8.27;;
46643;SDS011;32371;51.032;5.816;2023-08-20T05:55:18;14.13;;;7.60;;
46643;SDS011;32371;51.032;5.816;2023-08-20T05:57:44;13.30;;;7.60;;
46643;SDS011;32371;51.032;5.816;2023-08-20T06:00:09;14.00;;;8.43;;
46643;SDS011;32371;51.032;5.816;2023-08-20T06:02:36;15.23;;;7.97;;
46643;SDS011;32371;51.032;5.816;2023-08-20T06:05:02;18.77;;;7.82;;
46643;SDS011;32371;51.032;5.816;2023-08-20T06:07:29;13.65;;;8.05;;
46643;SDS011;32371;51.032;5.816;2023-08-20T06:09:55;14.30;;;7.47;;
46643;SDS011;32371;51.032;5.816;2023-08-20T06:12:23;12.40;;;7.93;;
46643;SDS011;32371;51.032;5.816;2023-08-20T06:14:48;15.80;;;8.15;;
46643;SDS011;32371;51.032;5.816;2023-08-20T06:17:14;9.65;;;6.78;;
46643;SDS011;32371;51.032;5.816;2023-08-20T06:19:39;10.85;;;7.20;;
46643;SDS011;32371;51.032;5.816;2023-08-20T06:22:05;13.57;;;6.72;;
46643;SDS011;32371;51.032;5.816;2023-08-20T06:24:30;19.17;;;7.72;;
46643;SDS011;32371;51.032;5.816;2023-08-20T06:26:55;15.02;;;6.88;;
46643;SDS011;32371;51.032;5.816;2023-08-20T06:29:22;15.85;;;7.05;;
46643;SDS011;32371;51.032;5.816;2023-08-20T06:31:48;11.82;;;6.53;;
46643;SDS011;32371;51.032;5.816;2023-08-20T06:34:13;12.07;;;6.05;;
46643;SDS011;32371;51.032;5.816;2023-08-20T06:36:39;14.25;;;6.53;;
46643;SDS011;32371;51.032;5.816;2023-08-20T06:39:04;14.40;;;7.20;;
46643;SDS011;32371;51.032;5.816;2023-08-20T06:41:30;15.23;;;6.68;;
46643;SDS011;32371;51.032;5.816;2023-08-20T06:43:56;15.88;;;6.18;;
46643;SDS011;32371;51.032;5.816;2023-08-20T06:46:21;17.42;;;6.75;;
46643;SDS011;32371;51.032;5.816;2023-08-20T06:48:47;12.80;;;6.78;;
46643;SDS011;32371;51.032;5.816;2023-08-20T06:51:12;10.85;;;7.00;;
46643;SDS011;32371;51.032;5.816;2023-08-20T06:53:38;13.93;;;6.45;;
46643;SDS011;32371;51.032;5.816;2023-08-20T06:56:05;12.00;;;6.78;;
46643;SDS011;32371;51.032;5.816;2023-08-20T06:58:31;14.02;;;7.32;;
46643;SDS011;32371;51.032;5.816;2023-08-20T07:00:57;9.43;;;6.50;;
46643;SDS011;32371;51.032;5.816;2023-08-20T07:03:32;11.35;;;6.20;;
46643;SDS011;32371;51.032;5.816;2023-08-20T07:06:07;10.55;;;6.25;;
46643;SDS011;32371;51.032;5.816;2023-08-20T07:08:34;13.13;;;6.10;;
46643;SDS011;32371;51.032;5.816;2023-08-20T07:10:59;11.73;;;6.93;;
46643;SDS011;32371;51.032;5.816;2023-08-20T07:13:25;9.43;;;6.15;;
46643;SDS011;32371;51.032;5.816;2023-08-20T07:15:50;9.35;;;6.10;;
46643;SDS011;32371;51.032;5.816;2023-08-20T07:18:16;10.88;;;6.32;;
46643;SDS011;32371;51.032;5.816;2023-08-20T07:20:42;9.60;;;5.43;;
46643;SDS011;32371;51.032;5.816;2023-08-20T07:23:08;11.60;;;5.95;;
46643;SDS011;32371;51.032;5.816;2023-08-20T07:25:36;15.43;;;7.30;;
46643;SDS011;32371;51.032;5.816;2023-08-20T07:28:01;10.55;;;5.22;;
46643;SDS011;32371;51.032;5.816;2023-08-20T07:30:27;10.07;;;5.35;;
46643;SDS011;32371;51.032;5.816;2023-08-20T07:32:53;10.93;;;4.60;;
46643;SDS011;32371;51.032;5.816;2023-08-20T07:35:18;11.57;;;5.72;;
46643;SDS011;32371;51.032;5.816;2023-08-20T07:37:43;9.70;;;5.65;;
46643;SDS011;32371;51.032;5.816;2023-08-20T07:40:09;15.68;;;5.57;;
46643;SDS011;32371;51.032;5.816;2023-08-20T07:42:36;10.23;;;4.63;;
46643;SDS011;32371;51.032;5.816;2023-08-20T07:45:01;6.95;;;4.13;;
46643;SDS011;32371;51.032;5.816;2023-08-20T07:47:27;11.68;;;5.07;;
46643;SDS011;32371;51.032;5.816;2023-08-20T07:49:54;10.48;;;4.90;;
46643;SDS011;32371;51.032;5.816;2023-08-20T07:52:19;9.52;;;4.22;;
46643;SDS011;32371;51.032;5.816;2023-08-20T07:54:45;12.30;;;4.70;;
46643;SDS011;32371;51.032;5.816;2023-08-20T07:57:10;9.57;;;4.55;;
46643;SDS011;32371;51.032;5.816;2023-08-20T07:59:36;12.23;;;5.95;;
46643;SDS011;32371;51.032;5.816;2023-08-20T08:02:01;8.27;;;5.07;;
46643;SDS011;32371;51.032;5.816;2023-08-20T08:04:26;16.13;;;5.97;;
46643;SDS011;32371;51.032;5.816;2023-08-20T08:06:52;10.13;;;3.95;;
46643;SDS011;32371;51.032;5.816;2023-08-20T08:09:21;7.88;;;4.20;;
46643;SDS011;32371;51.032;5.816;2023-08-20T08:11:51;8.82;;;4.40;;
46643;SDS011;32371;51.032;5.816;2023-08-20T08:14:16;7.97;;;4.05;;
46643;SDS011;32371;51.032;5.816;2023-08-20T08:16:42;6.88;;;3.50;;
46643;SDS011;32371;51.032;5.816;2023-08-20T08:19:07;13.77;;;4.25;;
46643;SDS011;32371;51.032;5.816;2023-08-20T08:21:33;12.02;;;4.43;;
46643;SDS011;32371;51.032;5.816;2023-08-20T08:23:58;12.75;;;6.28;;
46643;SDS011;32371;51.032;5.816;2023-08-20T08:26:23;8.02;;;5.07;;
46643;SDS011;32371;51.032;5.816;2023-08-20T08:28:49;13.68;;;5.72;;
46643;SDS011;32371;51.032;5.816;2023-08-20T08:31:14;12.07;;;4.28;;
46643;SDS011;32371;51.032;5.816;2023-08-20T08:33:40;7.30;;;3.88;;
46643;SDS011;32371;51.032;5.816;2023-08-20T08:36:05;7.35;;;3.65;;
46643;SDS011;32371;51.032;5.816;2023-08-20T08:38:30;8.07;;;4.40;;
46643;SDS011;32371;51.032;5.816;2023-08-20T08:40:56;8.68;;;4.20;;
46643;SDS011;32371;51.032;5.816;2023-08-20T08:43:22;10.13;;;4.90;;
46643;SDS011;32371;51.032;5.816;2023-08-20T08:45:47;10.43;;;4.97;;
46643;SDS011;32371;51.032;5.816;2023-08-20T08:48:13;14.00;;;4.80;;
46643;SDS011;32371;51.032;5.816;2023-08-20T08:50:39;16.50;;;4.95;;
46643;SDS011;32371;51.032;5.816;2023-08-20T08:53:05;12.75;;;4.63;;
46643;SDS011;32371;51.032;5.816;2023-08-20T08:55:31;9.07;;;4.07;;
46643;SDS011;32371;51.032;5.816;2023-08-20T08:57:56;12.98;;;4.50;;
46643;SDS011;32371;51.032;5.816;2023-08-20T09:00:22;8.98;;;4.20;;
46643;SDS011;32371;51.032;5.816;2023-08-20T09:02:47;13.52;;;4.75;;
46643;SDS011;32371;51.032;5.816;2023-08-20T09:05:13;12.73;;;4.93;;
46643;SDS011;32371;51.032;5.816;2023-08-20T09:07:42;12.60;;;5.50;;
46643;SDS011;32371;51.032;5.816;2023-08-20T09:10:09;9.70;;;5.78;;
46643;SDS011;32371;51.032;5.816;2023-08-20T09:12:34;12.98;;;5.57;;
46643;SDS011;32371;51.032;5.816;2023-08-20T09:15:00;9.73;;;4.32;;
46643;SDS011;32371;51.032;5.816;2023-08-20T09:17:26;12.27;;;6.72;;
46643;SDS011;32371;51.032;5.816;2023-08-20T09:19:53;10.95;;;5.63;;
46643;SDS011;32371;51.032;5.816;2023-08-20T09:22:21;9.35;;;6.28;;
46643;SDS011;32371;51.032;5.816;2023-08-20T09:24:51;10.55;;;6.07;;
46643;SDS011;32371;51.032;5.816;2023-08-20T09:27:18;12.07;;;5.90;;
46643;SDS011;32371;51.032;5.816;2023-08-20T09:32:09;13.40;;;6.22;;
46643;SDS011;32371;51.032;5.816;2023-08-20T09:34:39;11.90;;;6.93;;
46643;SDS011;32371;51.032;5.816;2023-08-20T09:37:07;12.40;;;6.05;;
46643;SDS011;32371;51.032;5.816;2023-08-20T09:39:33;7.90;;;6.03;;
46643;SDS011;32371;51.032;5.816;2023-08-20T09:41:59;9.65;;;5.13;;
46643;SDS011;32371;51.032;5.816;2023-08-20T09:44:24;7.90;;;4.18;;
46643;SDS011;32371;51.032;5.816;2023-08-20T09:46:53;7.82;;;4.28;;
46643;SDS011;32371;51.032;5.816;2023-08-20T09:49:18;11.57;;;4.88;;
46643;SDS011;32371;51.032;5.816;2023-08-20T09:51:45;11.35;;;5.28;;
46643;SDS011;32371;51.032;5.816;2023-08-20T09:54:16;9.38;;;6.03;;
46643;SDS011;32371;51.032;5.816;2023-08-20T09:56:46;12.13;;;5.43;;
46643;SDS011;32371;51.032;5.816;2023-08-20T09:59:16;7.55;;;4.07;;
46643;SDS011;32371;51.032;5.816;2023-08-20T10:01:42;9.88;;;4.75;;
46643;SDS011;32371;51.032;5.816;2023-08-20T10:04:08;8.00;;;4.30;;
46643;SDS011;32371;51.032;5.816;2023-08-20T10:06:35;5.88;;;3.83;;
46643;SDS011;32371;51.032;5.816;2023-08-20T10:09:00;5.43;;;4.05;;
46643;SDS011;32371;51.032;5.816;2023-08-20T10:11:27;6.85;;;4.13;;
46643;SDS011;32371;51.032;5.816;2023-08-20T10:13:52;6.88;;;4.03;;
46643;SDS011;32371;51.032;5.816;2023-08-20T10:16:18;5.50;;;3.75;;
46643;SDS011;32371;51.032;5.816;2023-08-20T10:18:49;9.73;;;4.60;;
46643;SDS011;32371;51.032;5.816;2023-08-20T10:21:14;5.93;;;3.70;;
46643;SDS011;32371;51.032;5.816;2023-08-20T10:23:40;8.55;;;3.78;;
46643;SDS011;32371;51.032;5.816;2023-08-20T10:26:08;9.05;;;4.20;;
46643;SDS011;32371;51.032;5.816;2023-08-20T10:28:35;8.15;;;4.53;;
46643;SDS011;32371;51.032;5.816;2023-08-20T10:31:07;4.40;;;2.97;;
46643;SDS011;32371;51.032;5.816;2023-08-20T10:33:55;8.50;;;3.17;;
46643;SDS011;32371;51.032;5.816;2023-08-20T10:36:22;5.22;;;3.47;;
46643;SDS011;32371;51.032;5.816;2023-08-20T10:41:26;5.75;;;2.63;;
46643;SDS011;32371;51.032;5.816;2023-08-20T10:43:52;11.23;;;3.58;;
46643;SDS011;32371;51.032;5.816;2023-08-20T10:46:24;5.88;;;3.00;;
46643;SDS011;32371;51.032;5.816;2023-08-20T10:49:01;4.65;;;3.15;;
46643;SDS011;32371;51.032;5.816;2023-08-20T10:51:35;4.20;;;2.60;;
46643;SDS011;32371;51.032;5.816;2023-08-20T10:56:41;5.20;;;2.40;;
46643;SDS011;32371;51.032;5.816;2023-08-20T10:59:28;3.05;;;2.35;;
46643;SDS011;32371;51.032;5.816;2023-08-20T11:01:57;5.25;;;3.05;;
46643;SDS011;32371;51.032;5.816;2023-08-20T11:04:24;6.15;;;2.33;;
46643;SDS011;32371;51.032;5.816;2023-08-20T11:06:53;5.28;;;2.25;;
46643;SDS011;32371;51.032;5.816;2023-08-20T11:09:23;6.38;;;1.92;;
46643;SDS011;32371;51.032;5.816;2023-08-20T11:11:50;6.05;;;2.65;;
46643;SDS011;32371;51.032;5.816;2023-08-20T11:14:17;7.05;;;2.30;;
46643;SDS011;32371;51.032;5.816;2023-08-20T11:16:44;3.17;;;1.65;;
46643;SDS011;32371;51.032;5.816;2023-08-20T11:19:10;4.65;;;2.03;;
46643;SDS011;32371;51.032;5.816;2023-08-20T11:21:38;4.95;;;1.83;;
46643;SDS011;32371;51.032;5.816;2023-08-20T11:24:05;7.93;;;2.33;;
46643;SDS011;32371;51.032;5.816;2023-08-20T11:26:31;5.65;;;2.25;;
46643;SDS011;32371;51.032;5.816;2023-08-20T11:29:00;4.88;;;2.10;;
46643;SDS011;32371;51.032;5.816;2023-08-20T11:31:27;5.22;;;2.10;;
46643;SDS011;32371;51.032;5.816;2023-08-20T11:33:52;5.40;;;2.28;;
46643;SDS011;32371;51.032;5.816;2023-08-20T11:36:21;3.50;;;1.70;;
46643;SDS011;32371;51.032;5.816;2023-08-20T11:38:52;4.28;;;1.98;;
46643;SDS011;32371;51.032;5.816;2023-08-20T11:41:18;3.67;;;1.60;;
46643;SDS011;32371;51.032;5.816;2023-08-20T11:43:45;6.20;;;1.50;;
46643;SDS011;32371;51.032;5.816;2023-08-20T11:46:14;7.85;;;1.55;;
46643;SDS011;32371;51.032;5.816;2023-08-20T11:48:59;3.88;;;1.70;;
46643;SDS011;32371;51.032;5.816;2023-08-20T11:51:29;4.13;;;1.55;;
46643;SDS011;32371;51.032;5.816;2023-08-20T11:53:55;4.85;;;1.25;;
46643;SDS011;32371;51.032;5.816;2023-08-20T11:56:22;4.43;;;1.40;;
46643;SDS011;32371;51.032;5.816;2023-08-20T11:58:50;2.90;;;1.25;;
46643;SDS011;32371;51.032;5.816;2023-08-20T12:01:17;3.95;;;2.00;;
46643;SDS011;32371;51.032;5.816;2023-08-20T12:03:45;2.60;;;1.70;;
46643;SDS011;32371;51.032;5.816;2023-08-20T12:06:17;4.18;;;1.92;;
46643;SDS011;32371;51.032;5.816;2023-08-20T12:08:48;5.05;;;2.45;;
46643;SDS011;32371;51.032;5.816;2023-08-20T12:11:13;3.72;;;1.60;;
46643;SDS011;32371;51.032;5.816;2023-08-20T12:13:39;4.28;;;1.70;;
46643;SDS011;32371;51.032;5.816;2023-08-20T12:16:04;4.32;;;1.25;;
46643;SDS011;32371;51.032;5.816;2023-08-20T12:18:30;7.45;;;1.75;;
46643;SDS011;32371;51.032;5.816;2023-08-20T12:20:56;4.57;;;1.65;;
46643;SDS011;32371;51.032;5.816;2023-08-20T12:23:21;3.92;;;1.50;;
46643;SDS011;32371;51.032;5.816;2023-08-20T12:25:50;6.38;;;1.50;;
46643;SDS011;32371;51.032;5.816;2023-08-20T12:28:17;3.95;;;1.38;;
46643;SDS011;32371;51.032;5.816;2023-08-20T12:30:43;4.72;;;1.65;;
46643;SDS011;32371;51.032;5.816;2023-08-20T12:33:09;2.42;;;1.52;;
46643;SDS011;32371;51.032;5.816;2023-08-20T12:35:36;3.50;;;1.85;;
46643;SDS011;32371;51.032;5.816;2023-08-20T12:38:01;3.47;;;1.42;;
46643;SDS011;32371;51.032;5.816;2023-08-20T12:40:28;3.20;;;1.55;;
46643;SDS011;32371;51.032;5.816;2023-08-20T12:42:54;6.20;;;1.20;;
46643;SDS011;32371;51.032;5.816;2023-08-20T12:45:20;5.90;;;1.38;;
46643;SDS011;32371;51.032;5.816;2023-08-20T12:47:46;1.77;;;1.35;;
46643;SDS011;32371;51.032;5.816;2023-08-20T12:50:11;2.60;;;1.00;;
46643;SDS011;32371;51.032;5.816;2023-08-20T12:52:38;2.85;;;1.27;;
46643;SDS011;32371;51.032;5.816;2023-08-20T12:55:04;4.07;;;1.40;;
46643;SDS011;32371;51.032;5.816;2023-08-20T12:57:30;3.40;;;1.20;;
46643;SDS011;32371;51.032;5.816;2023-08-20T12:59:58;3.00;;;0.95;;
46643;SDS011;32371;51.032;5.816;2023-08-20T13:02:24;2.33;;;1.27;;
46643;SDS011;32371;51.032;5.816;2023-08-20T13:04:50;3.00;;;1.70;;
46643;SDS011;32371;51.032;5.816;2023-08-20T13:07:16;2.83;;;1.25;;
46643;SDS011;32371;51.032;5.816;2023-08-20T13:09:41;3.30;;;1.67;;
46643;SDS011;32371;51.032;5.816;2023-08-20T13:12:08;5.93;;;1.38;;
46643;SDS011;32371;51.032;5.816;2023-08-20T13:14:37;3.95;;;1.30;;
46643;SDS011;32371;51.032;5.816;2023-08-20T13:17:06;4.50;;;1.55;;
46643;SDS011;32371;51.032;5.816;2023-08-20T13:19:32;2.90;;;1.90;;
46643;SDS011;32371;51.032;5.816;2023-08-20T13:21:57;1.33;;;1.15;;
46643;SDS011;32371;51.032;5.816;2023-08-20T13:24:23;2.33;;;1.40;;
46643;SDS011;32371;51.032;5.816;2023-08-20T13:26:50;2.47;;;1.20;;
46643;SDS011;32371;51.032;5.816;2023-08-20T13:29:16;1.63;;;1.00;;
46643;SDS011;32371;51.032;5.816;2023-08-20T13:31:41;6.05;;;2.08;;
46643;SDS011;32371;51.032;5.816;2023-08-20T13:34:08;2.47;;;1.10;;
46643;SDS011;32371;51.032;5.816;2023-08-20T13:36:34;3.15;;;1.35;;
46643;SDS011;32371;51.032;5.816;2023-08-20T13:39:00;4.18;;;1.50;;
46643;SDS011;32371;51.032;5.816;2023-08-20T13:41:27;4.65;;;1.58;;
46643;SDS011;32371;51.032;5.816;2023-08-20T13:43:52;3.13;;;1.50;;
46643;SDS011;32371;51.032;5.816;2023-08-20T13:46:18;1.45;;;1.17;;
46643;SDS011;32371;51.032;5.816;2023-08-20T13:48:43;3.33;;;1.42;;
46643;SDS011;32371;51.032;5.816;2023-08-20T13:51:09;2.53;;;0.95;;
46643;SDS011;32371;51.032;5.816;2023-08-20T13:53:34;3.22;;;1.30;;
46643;SDS011;32371;51.032;5.816;2023-08-20T13:56:00;3.58;;;1.60;;
46643;SDS011;32371;51.032;5.816;2023-08-20T13:58:27;2.75;;;1.33;;
46643;SDS011;32371;51.032;5.816;2023-08-20T14:00:52;2.70;;;1.45;;
46643;SDS011;32371;51.032;5.816;2023-08-20T14:03:18;5.53;;;1.50;;
46643;SDS011;32371;51.032;5.816;2023-08-20T14:05:43;4.50;;;1.35;;
46643;SDS011;32371;51.032;5.816;2023-08-20T14:08:10;2.83;;;1.40;;
46643;SDS011;32371;51.032;5.816;2023-08-20T14:10:36;4.47;;;1.55;;
46643;SDS011;32371;51.032;5.816;2023-08-20T14:13:01;2.00;;;1.25;;
46643;SDS011;32371;51.032;5.816;2023-08-20T14:15:26;2.70;;;1.45;;
46643;SDS011;32371;51.032;5.816;2023-08-20T14:17:52;2.35;;;1.08;;
46643;SDS011;32371;51.032;5.816;2023-08-20T14:20:17;2.55;;;1.23;;
46643;SDS011;32371;51.032;5.816;2023-08-20T14:22:42;5.63;;;1.48;;
46643;SDS011;32371;51.032;5.816;2023-08-20T14:25:08;3.55;;;1.30;;
46643;SDS011;32371;51.032;5.816;2023-08-20T14:27:33;4.65;;;1.42;;
46643;SDS011;32371;51.032;5.816;2023-08-20T14:29:59;4.03;;;1.80;;
46643;SDS011;32371;51.032;5.816;2023-08-20T14:32:24;1.42;;;1.00;;
46643;SDS011;32371;51.032;5.816;2023-08-20T14:34:50;3.20;;;1.25;;
46643;SDS011;32371;51.032;5.816;2023-08-20T14:37:15;2.97;;;1.30;;
46643;SDS011;32371;51.032;5.816;2023-08-20T14:39:40;2.70;;;1.02;;
46643;SDS011;32371;51.032;5.816;2023-08-20T14:42:06;3.55;;;1.75;;
46643;SDS011;32371;51.032;5.816;2023-08-20T14:44:31;2.17;;;1.10;;
46643;SDS011;32371;51.032;5.816;2023-08-20T14:46:58;4.65;;;1.60;;
46643;SDS011;32371;51.032;5.816;2023-08-20T14:49:23;2.88;;;1.13;;
46643;SDS011;32371;51.032;5.816;2023-08-20T14:51:48;4.95;;;0.98;;
46643;SDS011;32371;51.032;5.816;2023-08-20T14:54:14;3.08;;;1.00;;